Webcam 1 more information Webcam 1


Webcam 2 more information Webcam 2


altri nostri siti meteo:

Pomeziameteo 1Sito sul meteo

Pomeziameteo DashboardSito sul meteo

Caput FrigorisSito sul meteo

BarcellonameteoSito sul meteo

MeteoipassiSito sul meteo

ViterbometeoSito sul meteo

MeteotortoretoSito sul meteo

Stazione LineameteoSito sul meteo



Nessuna attenzione particolare richiesta.    Non ci sono allerte meteo

Report METAR

   
LIBP - Pescara
Dati ricevuti: 27-10-2021 15:20
Sereno  
Sereno  
   Vento: NE 18.5 km/h
Vento: NE 18.5 km/h
Temperatura: 18°C
P.to Rugiada: 11°C
Umidita: 64%
Barometro: 1023 hPa
Nuvole: Sereno
Visibilita: oltre 10 km
dettagli cloud: Sereno
LIBP 271320Z AUTO 03010KT 9999 NCD 18/11 Q1023
LIRZ - Perugia
Dati ricevuti: 27-10-2021 15:20
Sereno  
Sereno  
   Vento: NE 27.8 km/h
Vento: NE 27.8 km/h
Temperatura: 18°C
P.to Rugiada: 8°C
Umidita: 52%
Barometro: 1022 hPa
Nuvole: Sereno
Visibilita: oltre 10 km
dettagli cloud: Sereno
LIRZ 271320Z AUTO 03015KT 9999 NCD 18/08 Q1022
LIQN - Rieti
Dati ricevuti: 27-10-2021 14:50
Sereno  
Sereno  
   Vento: Sud 7.4 km/h
Vento: Sud 7.4 km/h
Temperatura: 20°C
P.to Rugiada: 7°C
Umidita: 43%
Barometro: 1021 hPa
Visibilita: oltre 10 km
dettagli cloud: Sereno
LIQN 271250Z 18004KT 130V220 CAVOK 20/07 Q1021
LIPY - Falconara
Dati ricevuti: 27-10-2021 15:20
  
  
   Vento: NO 18.5 km/h
Vento: NO 18.5 km/h
Temperatura: 17°C
P.to Rugiada: 12°C
Umidita: 73%
Barometro: 1024 hPa
Visibilita: oltre 10 km
LIPY 271320Z AUTO 32010KT 9999 ///////// 17/12 Q1024
  

Script sviluppato da  Saratoga-weather.org Adattato per il modello da  Weerstation Leuven

Potete trovare le nostre info meteo anche a:

Weather Underground

AWEKAS

Citizen Weather Observer Program (CWOP)

HAMweather, WeatherForYou, PWS Weather

Strumentazione usata:

Stazione meteo
Oregon 928

Programma gestore dati meteo
WVIEW

Server per i dati meteo
Pc-WDS5

Oregon 928

WVIEW

Pc-WDS5